Time;durP1;ratioP1;P1;durP2;ratioP2;P2;SDS_P1;SDS_P2;PMS_P1;PMS_P2;Temp;Humidity;BMP_temperature;BMP_pressure;BME280_temperature;BME280_humidity;BME280_pressure;Samples;Min_cycle;Max_cycle;Signal;HPM_P1;HPM_P2
2022/04/27 00:01:12;;;;;;;16.00;10.20;;;;;;;;;;5033163;28;20992;-56
2022/04/27 00:03:38;;;;;;;11.60;10.40;;;;;;;;;;5033182;28;20837;-55
2022/04/27 00:06:04;;;;;;;12.43;10.60;;;;;;;;;;5033290;28;20404;-64
2022/04/27 00:08:31;;;;;;;13.77;11.07;;;;;;;;;;5033340;28;20427;-56
2022/04/27 00:10:57;;;;;;;11.20;9.90;;;;;;;;;;5033169;28;20495;-58
2022/04/27 00:13:23;;;;;;;13.33;11.10;;;;;;;;;;5032410;28;20459;-52
2022/04/27 00:15:49;;;;;;;14.30;10.60;;;;;;;;;;5033116;28;20405;-57
2022/04/27 00:18:15;;;;;;;14.67;11.57;;;;;;;;;;5031492;28;20456;-50
2022/04/27 00:20:41;;;;;;;17.20;10.70;;;;;;;;;;5032793;28;20464;-49
2022/04/27 00:23:08;;;;;;;13.10;11.03;;;;;;;;;;5032609;28;20456;-61
2022/04/27 00:25:34;;;;;;;12.90;10.30;;;;;;;;;;5032764;28;20440;-70
2022/04/27 00:28:00;;;;;;;12.53;10.10;;;;;;;;;;5032543;28;20420;-57
2022/04/27 00:30:26;;;;;;;13.27;10.67;;;;;;;;;;5032538;28;20415;-60
2022/04/27 00:32:52;;;;;;;12.13;10.60;;;;;;;;;;5032507;28;20421;-68
2022/04/27 00:35:18;;;;;;;11.17;9.97;;;;;;;;;;5032690;28;20470;-66
2022/04/27 00:37:44;;;;;;;12.10;10.10;;;;;;;;;;5031272;28;20520;-53
2022/04/27 00:40:10;;;;;;;12.20;9.47;;;;;;;;;;5032427;28;20913;-61
2022/04/27 00:42:37;;;;;;;10.83;9.63;;;;;;;;;;5032431;28;20899;-63
2022/04/27 00:45:03;;;;;;;15.30;10.57;;;;;;;;;;5032433;28;20428;-72
2022/04/27 00:47:30;;;;;;;11.33;10.13;;;;;;;;;;5032399;28;20443;-62
2022/04/27 00:50:02;;;;;;;11.60;10.40;;;;;;;;;;5032399;28;20893;-55
2022/04/27 00:52:30;;;;;;;11.77;10.53;;;;;;;;;;5031175;28;20470;-68
2022/04/27 00:54:56;;;;;;;11.40;9.60;;;;;;;;;;5032355;28;20412;-69
2022/04/27 00:57:26;;;;;;;11.00;9.87;;;;;;;;;;5030942;28;20980;-68
2022/04/27 00:59:53;;;;;;;12.53;10.03;;;;;;;;;;5032353;28;20916;-60
2022/04/27 01:02:19;;;;;;;12.53;10.17;;;;;;;;;;5032260;28;20964;-58
2022/04/27 01:04:45;;;;;;;16.33;10.50;;;;;;;;;;5031131;28;20511;-58
2022/04/27 01:07:11;;;;;;;11.40;9.70;;;;;;;;;;5032197;28;20417;-57
2022/04/27 01:09:38;;;;;;;10.87;9.73;;;;;;;;;;5032066;28;20776;-54
2022/04/27 01:12:04;;;;;;;10.60;9.50;;;;;;;;;;5031005;28;20417;-53
2022/04/27 01:14:40;;;;;;;13.60;10.50;;;;;;;;;;5032322;28;20409;-55
2022/04/27 01:17:06;;;;;;;11.93;10.27;;;;;;;;;;5032116;28;20420;-53
2022/04/27 01:19:32;;;;;;;12.83;10.27;;;;;;;;;;5031152;28;20781;-53
2022/04/27 01:21:59;;;;;;;12.03;10.10;;;;;;;;;;5031955;28;20484;-57
2022/04/27 01:24:25;;;;;;;12.60;10.70;;;;;;;;;;5034227;28;20408;-49
2022/04/27 01:26:52;;;;;;;12.23;10.70;;;;;;;;;;5034406;28;20979;-49
2022/04/27 01:29:19;;;;;;;13.80;11.03;;;;;;;;;;5035257;28;20440;-59
2022/04/27 01:31:45;;;;;;;13.17;10.67;;;;;;;;;;5035685;28;20820;-59
2022/04/27 01:34:14;;;;;;;11.33;10.13;;;;;;;;;;5034337;28;20789;-54
2022/04/27 01:36:40;;;;;;;11.47;10.27;;;;;;;;;;5035573;28;20439;-58
2022/04/27 01:39:07;;;;;;;13.70;10.27;;;;;;;;;;5035661;28;20900;-53
2022/04/27 01:41:33;;;;;;;13.67;11.90;;;;;;;;;;5035649;28;21009;-49
2022/04/27 01:44:00;;;;;;;16.70;11.60;;;;;;;;;;5035505;28;20409;-59
2022/04/27 01:46:29;;;;;;;12.20;10.53;;;;;;;;;;5035468;28;20551;-50
2022/04/27 01:48:55;;;;;;;12.20;10.17;;;;;;;;;;5035347;28;20921;-51
2022/04/27 01:54:16;;;;;;;13.57;11.10;;;;;;;;;;5035441;28;20404;-52
2022/04/27 01:56:45;;;;;;;14.40;10.80;;;;;;;;;;5035241;28;20407;-50
2022/04/27 01:59:12;;;;;;;12.10;10.37;;;;;;;;;;5035301;28;20415;-52
2022/04/27 02:01:38;;;;;;;14.00;10.00;;;;;;;;;;5033855;28;20542;-58
2022/04/27 02:04:04;;;;;;;13.13;10.60;;;;;;;;;;5035128;28;20405;-55
2022/04/27 02:06:30;;;;;;;12.77;10.20;;;;;;;;;;5035388;28;20435;-50
2022/04/27 02:08:57;;;;;;;12.70;10.40;;;;;;;;;;5033751;28;20503;-50
2022/04/27 02:11:26;;;;;;;12.20;10.23;;;;;;;;;;5035093;28;20506;-54
2022/04/27 02:13:56;;;;;;;18.37;10.40;;;;;;;;;;5035032;28;20413;-50
2022/04/27 02:16:25;;;;;;;13.07;10.70;;;;;;;;;;5035045;28;20893;-50
2022/04/27 02:18:51;;;;;;;13.87;11.67;;;;;;;;;;5034975;28;20971;-59
2022/04/27 02:21:17;;;;;;;18.73;11.63;;;;;;;;;;5034790;28;20979;-64
2022/04/27 02:23:46;;;;;;;14.50;10.70;;;;;;;;;;5034914;28;20405;-58
2022/04/27 02:26:12;;;;;;;13.40;10.70;;;;;;;;;;5034702;28;20746;-61
2022/04/27 02:28:38;;;;;;;14.27;10.33;;;;;;;;;;5034618;28;20409;-57
2022/04/27 02:31:04;;;;;;;11.93;10.00;;;;;;;;;;5033359;28;20457;-60
2022/04/27 02:33:31;;;;;;;12.63;10.30;;;;;;;;;;5034561;28;20818;-59
2022/04/27 02:35:57;;;;;;;14.10;10.40;;;;;;;;;;5034011;28;20409;-53
2022/04/27 02:38:23;;;;;;;12.57;10.80;;;;;;;;;;5033455;28;20834;-54
2022/04/27 02:40:49;;;;;;;16.63;10.80;;;;;;;;;;5034503;28;20877;-54
2022/04/27 02:43:16;;;;;;;11.50;10.30;;;;;;;;;;5034491;28;20429;-52
2022/04/27 02:45:45;;;;;;;12.17;9.83;;;;;;;;;;5034612;28;20884;-53
2022/04/27 02:48:11;;;;;;;12.77;10.63;;;;;;;;;;5034268;28;20413;-56
2022/04/27 02:53:23;;;;;;;11.27;10.07;;;;;;;;;;5034246;28;20546;-59
2022/04/27 02:55:48;;;;;;;11.00;9.83;;;;;;;;;;5034370;28;20401;-52
2022/04/27 02:58:14;;;;;;;12.77;10.20;;;;;;;;;;5034252;28;20761;-52
2022/04/27 03:00:44;;;;;;;11.50;9.57;;;;;;;;;;5032862;28;20468;-50
2022/04/27 03:03:10;;;;;;;10.47;8.97;;;;;;;;;;5034174;28;20425;-48
2022/04/27 03:05:36;;;;;;;10.20;9.10;;;;;;;;;;5032759;28;20409;-53
2022/04/27 03:08:02;;;;;;;9.63;8.63;;;;;;;;;;5032590;28;20953;-52
2022/04/27 03:10:28;;;;;;;11.80;9.00;;;;;;;;;;5033782;28;20400;-55
2022/04/27 03:12:54;;;;;;;10.33;9.23;;;;;;;;;;5032665;28;20831;-55
2022/04/27 03:15:20;;;;;;;10.50;9.50;;;;;;;;;;5033862;28;20435;-51
2022/04/27 03:18:16;;;;;;;9.83;8.83;;;;;;;;;;5033956;28;20421;-52
2022/04/27 03:20:35;;;;;;;11.00;9.30;;;;;;;;;;5033577;28;20421;-53
2022/04/27 03:23:01;;;;;;;10.07;9.03;;;;;;;;;;5033503;28;20541;-56
2022/04/27 03:25:27;;;;;;;9.17;8.27;;;;;;;;;;5033630;28;20433;-50
2022/04/27 03:27:53;;;;;;;11.00;9.90;;;;;;;;;;5033662;28;20413;-58
2022/04/27 03:30:19;;;;;;;10.93;9.53;;;;;;;;;;5033701;28;20450;-58
2022/04/27 03:32:45;;;;;;;10.57;9.50;;;;;;;;;;5033718;28;20577;-57
2022/04/27 03:35:11;;;;;;;15.83;10.10;;;;;;;;;;5033365;28;20495;-55
2022/04/27 03:37:37;;;;;;;10.60;9.50;;;;;;;;;;5033347;28;20462;-51
2022/04/27 03:40:04;;;;;;;13.07;10.97;;;;;;;;;;5033255;28;20417;-61
2022/04/27 03:42:30;;;;;;;10.80;9.30;;;;;;;;;;5033264;28;20472;-51
2022/04/27 03:44:58;;;;;;;17.80;9.60;;;;;;;;;;5032989;28;20734;-50
2022/04/27 03:47:25;;;;;;;13.90;8.90;;;;;;;;;;5032134;28;20473;-50
2022/04/27 03:49:51;;;;;;;12.33;9.90;;;;;;;;;;5033214;28;20765;-54
2022/04/27 03:52:18;;;;;;;12.17;10.07;;;;;;;;;;5033214;28;20424;-50
2022/04/27 03:54:44;;;;;;;25.07;9.27;;;;;;;;;;5032935;28;20401;-52
2022/04/27 03:57:10;;;;;;;11.60;9.80;;;;;;;;;;5032998;28;20424;-53
2022/04/27 03:59:36;;;;;;;14.73;10.87;;;;;;;;;;5032934;28;20427;-54
2022/04/27 04:02:02;;;;;;;11.57;10.33;;;;;;;;;;5032925;28;20472;-50
2022/04/27 04:04:31;;;;;;;11.20;9.50;;;;;;;;;;5032757;28;20427;-60
2022/04/27 04:06:57;;;;;;;12.60;10.73;;;;;;;;;;5031757;28;20436;-50
2022/04/27 04:09:23;;;;;;;10.33;9.37;;;;;;;;;;5032778;28;20459;-49
2022/04/27 04:11:49;;;;;;;12.97;9.50;;;;;;;;;;5033034;28;20412;-52
2022/04/27 04:14:15;;;;;;;10.90;9.70;;;;;;;;;;5032908;28;20966;-53
2022/04/27 04:16:41;;;;;;;12.67;10.50;;;;;;;;;;5032697;28;20413;-52
2022/04/27 04:19:07;;;;;;;15.50;11.30;;;;;;;;;;5032675;28;20774;-53
2022/04/27 04:21:33;;;;;;;11.70;10.50;;;;;;;;;;5032376;28;20519;-50
2022/04/27 04:23:59;;;;;;;12.77;10.63;;;;;;;;;;5032632;28;20408;-50
2022/04/27 04:29:10;;;;;;;15.37;11.10;;;;;;;;;;5032386;28;20416;-51
2022/04/27 04:31:36;;;;;;;16.97;12.60;;;;;;;;;;5031238;28;20417;-51
2022/04/27 04:34:02;;;;;;;15.73;11.67;;;;;;;;;;5032354;28;20408;-52
2022/04/27 04:36:28;;;;;;;16.20;12.17;;;;;;;;;;5032463;28;20176;-49
2022/04/27 04:38:54;;;;;;;14.90;11.30;;;;;;;;;;5032539;28;20419;-51
2022/04/27 04:41:20;;;;;;;14.83;10.73;;;;;;;;;;5032336;28;20456;-50
2022/04/27 04:43:46;;;;;;;13.30;11.50;;;;;;;;;;5032365;28;20470;-52
2022/04/27 04:46:12;;;;;;;17.23;11.27;;;;;;;;;;5031057;28;20173;-51
2022/04/27 04:48:38;;;;;;;13.63;11.23;;;;;;;;;;5032326;28;20409;-53
2022/04/27 04:51:04;;;;;;;14.07;11.50;;;;;;;;;;5032194;28;20466;-51
2022/04/27 04:53:30;;;;;;;18.20;11.20;;;;;;;;;;5032109;28;20410;-54
2022/04/27 04:55:56;;;;;;;19.60;13.47;;;;;;;;;;5030902;28;20424;-50
2022/04/27 04:58:22;;;;;;;21.97;13.40;;;;;;;;;;5032847;28;20419;-52
2022/04/27 05:00:48;;;;;;;25.13;14.00;;;;;;;;;;5036246;28;20455;-52
2022/04/27 05:03:15;;;;;;;18.03;13.70;;;;;;;;;;5036203;28;20469;-52
2022/04/27 05:05:41;;;;;;;16.53;13.17;;;;;;;;;;5036177;28;20930;-54
2022/04/27 05:08:11;;;;;;;31.33;13.50;;;;;;;;;;5035876;28;20415;-49
2022/04/27 05:10:37;;;;;;;17.90;13.27;;;;;;;;;;5034808;28;20454;-49
2022/04/27 05:13:03;;;;;;;16.43;12.30;;;;;;;;;;5035872;28;20416;-51
2022/04/27 05:15:29;;;;;;;15.00;11.97;;;;;;;;;;5035669;28;20405;-52
2022/04/27 05:17:55;;;;;;;14.00;12.10;;;;;;;;;;5035784;28;20451;-55
2022/04/27 05:20:21;;;;;;;18.00;12.23;;;;;;;;;;5035677;28;20407;-50
2022/04/27 05:22:47;;;;;;;15.67;11.10;;;;;;;;;;5035629;28;20468;-52
2022/04/27 05:25:13;;;;;;;13.00;11.60;;;;;;;;;;5034339;28;20408;-58
2022/04/27 05:27:40;;;;;;;14.63;10.77;;;;;;;;;;5035481;28;20408;-48
2022/04/27 05:32:51;;;;;;;14.03;11.20;;;;;;;;;;5035724;28;20447;-50
2022/04/27 05:35:17;;;;;;;15.13;11.00;;;;;;;;;;5035648;28;20412;-50
2022/04/27 05:37:43;;;;;;;15.97;11.23;;;;;;;;;;5035452;28;20404;-54
2022/04/27 05:40:10;;;;;;;15.07;11.63;;;;;;;;;;5035364;28;20412;-50
2022/04/27 05:42:36;;;;;;;18.33;10.27;;;;;;;;;;5035417;28;20468;-54
2022/04/27 05:45:03;;;;;;;13.83;11.03;;;;;;;;;;5035269;28;20467;-58
2022/04/27 05:47:29;;;;;;;16.50;10.23;;;;;;;;;;5035341;28;20446;-51
2022/04/27 05:49:55;;;;;;;15.33;10.23;;;;;;;;;;5035578;28;20409;-50
2022/04/27 05:52:22;;;;;;;19.70;11.40;;;;;;;;;;5034966;28;20411;-51
2022/04/27 05:54:48;;;;;;;12.73;10.60;;;;;;;;;;5034247;28;20773;-51
2022/04/27 05:57:14;;;;;;;13.30;10.40;;;;;;;;;;5034958;28;20425;-55
2022/04/27 05:59:43;;;;;;;12.10;10.87;;;;;;;;;;5035208;28;20480;-49
2022/04/27 06:02:09;;;;;;;11.87;10.03;;;;;;;;;;5034873;28;20471;-50
2022/04/27 06:04:35;;;;;;;12.83;11.00;;;;;;;;;;5034990;28;20408;-49
2022/04/27 06:07:01;;;;;;;19.30;11.70;;;;;;;;;;5034752;28;20420;-53
2022/04/27 06:09:27;;;;;;;20.20;10.00;;;;;;;;;;5035133;28;20408;-51
2022/04/27 06:11:54;;;;;;;15.40;10.13;;;;;;;;;;5034591;28;20418;-49
2022/04/27 06:14:20;;;;;;;11.57;10.20;;;;;;;;;;5034982;28;20401;-51
2022/04/27 06:16:46;;;;;;;12.00;10.33;;;;;;;;;;5035007;28;20426;-49
2022/04/27 06:19:13;;;;;;;10.87;9.77;;;;;;;;;;5034720;28;20401;-50
2022/04/27 06:21:39;;;;;;;10.80;9.20;;;;;;;;;;5034468;28;20538;-49
2022/04/27 06:24:06;;;;;;;15.13;9.70;;;;;;;;;;5034470;28;20412;-51
2022/04/27 06:26:33;;;;;;;11.57;10.10;;;;;;;;;;5035079;28;20417;-58
2022/04/27 06:29:03;;;;;;;11.67;9.37;;;;;;;;;;5036261;28;20796;-56
2022/04/27 06:31:30;;;;;;;11.50;9.67;;;;;;;;;;5035349;28;20451;-56
2022/04/27 06:33:57;;;;;;;12.13;10.00;;;;;;;;;;5033725;28;20765;-52
2022/04/27 06:36:23;;;;;;;14.20;9.77;;;;;;;;;;5034747;28;20412;-67
2022/04/27 06:38:49;;;;;;;12.07;9.43;;;;;;;;;;5035056;28;20414;-48
2022/04/27 06:41:15;;;;;;;13.30;9.47;;;;;;;;;;5034990;28;20240;-49
2022/04/27 06:43:41;;;;;;;10.97;9.80;;;;;;;;;;5034593;28;20448;-55
2022/04/27 06:46:07;;;;;;;10.13;9.13;;;;;;;;;;5034555;28;20761;-51
2022/04/27 06:48:33;;;;;;;13.40;8.97;;;;;;;;;;5034614;28;20416;-50
2022/04/27 06:50:59;;;;;;;10.23;8.97;;;;;;;;;;5034045;28;20397;-50
2022/04/27 06:53:25;;;;;;;10.00;9.00;;;;;;;;;;5033400;28;20408;-54
2022/04/27 06:55:51;;;;;;;12.23;9.23;;;;;;;;;;5033963;28;20462;-51
2022/04/27 06:58:17;;;;;;;13.77;8.60;;;;;;;;;;5034025;28;20409;-52
2022/04/27 07:00:43;;;;;;;10.27;9.27;;;;;;;;;;5031995;28;20917;-51
2022/04/27 07:03:09;;;;;;;16.60;9.50;;;;;;;;;;5033628;28;20454;-50
2022/04/27 07:05:35;;;;;;;11.57;9.83;;;;;;;;;;5032920;28;20822;-54
2022/04/27 07:08:02;;;;;;;16.53;9.50;;;;;;;;;;5033683;28;20987;-54
2022/04/27 07:10:36;;;;;;;15.00;10.30;;;;;;;;;;5033614;28;20412;-49
2022/04/27 07:13:02;;;;;;;11.37;10.20;;;;;;;;;;5032205;28;20946;-52
2022/04/27 07:15:28;;;;;;;11.60;9.60;;;;;;;;;;5033233;28;20408;-62
2022/04/27 07:17:54;;;;;;;11.67;9.57;;;;;;;;;;5033631;28;20519;-52
2022/04/27 07:20:20;;;;;;;10.77;9.27;;;;;;;;;;5032381;28;20847;-51
2022/04/27 07:22:46;;;;;;;12.20;9.80;;;;;;;;;;5033506;28;20518;-52
2022/04/27 07:25:14;;;;;;;10.03;9.10;;;;;;;;;;5033525;28;20936;-59
2022/04/27 07:27:40;;;;;;;10.33;9.10;;;;;;;;;;5033460;28;20413;-58
2022/04/27 07:30:06;;;;;;;12.23;9.93;;;;;;;;;;5032389;28;20542;-52
2022/04/27 07:32:32;;;;;;;10.80;9.70;;;;;;;;;;5030492;28;20784;-50
2022/04/27 07:34:58;;;;;;;12.10;9.90;;;;;;;;;;5033061;28;20951;-60
2022/04/27 07:37:24;;;;;;;13.37;10.10;;;;;;;;;;5033328;28;20746;-51
2022/04/27 07:39:54;;;;;;;12.03;10.10;;;;;;;;;;5032161;28;20785;-53
2022/04/27 07:42:21;;;;;;;10.57;9.57;;;;;;;;;;5031733;28;21000;-50
2022/04/27 07:44:47;;;;;;;13.13;10.37;;;;;;;;;;5032207;28;20785;-51
2022/04/27 07:47:15;;;;;;;16.30;10.07;;;;;;;;;;5033294;28;20417;-50
2022/04/27 07:49:41;;;;;;;10.80;9.70;;;;;;;;;;5033094;28;20488;-52
2022/04/27 07:52:07;;;;;;;12.03;9.30;;;;;;;;;;5032914;28;20495;-55
2022/04/27 07:54:33;;;;;;;11.57;9.87;;;;;;;;;;5033034;28;20410;-53
2022/04/27 07:56:59;;;;;;;11.90;9.57;;;;;;;;;;5033040;28;20404;-52
2022/04/27 07:59:26;;;;;;;13.87;9.30;;;;;;;;;;5032922;28;20766;-56
2022/04/27 08:01:52;;;;;;;10.20;9.07;;;;;;;;;;5032876;28;20232;-54
2022/04/27 08:04:18;;;;;;;15.07;9.40;;;;;;;;;;5033115;28;20782;-51
2022/04/27 08:06:44;;;;;;;15.43;9.67;;;;;;;;;;5032820;28;20396;-58
2022/04/27 08:09:10;;;;;;;15.63;9.60;;;;;;;;;;5032810;28;20851;-50
2022/04/27 08:11:39;;;;;;;18.90;9.97;;;;;;;;;;5032708;28;20440;-51
2022/04/27 08:14:06;;;;;;;13.93;9.80;;;;;;;;;;5032690;28;20408;-51
2022/04/27 08:16:32;;;;;;;12.27;9.93;;;;;;;;;;5032771;28;20447;-50
2022/04/27 08:18:58;;;;;;;10.23;9.17;;;;;;;;;;5032519;28;20409;-53
2022/04/27 08:21:27;;;;;;;11.03;9.93;;;;;;;;;;5032292;28;20491;-53
2022/04/27 08:23:53;;;;;;;13.47;9.40;;;;;;;;;;5032625;28;20408;-49
2022/04/27 08:26:19;;;;;;;12.00;10.33;;;;;;;;;;5032706;28;20792;-51
2022/04/27 08:28:45;;;;;;;15.10;9.70;;;;;;;;;;5031345;28;20429;-58
2022/04/27 08:31:13;;;;;;;18.23;9.30;;;;;;;;;;5032756;28;20466;-50
2022/04/27 08:33:39;;;;;;;14.80;10.20;;;;;;;;;;5031974;28;20495;-52
2022/04/27 08:36:05;;;;;;;17.60;10.30;;;;;;;;;;5031240;28;20526;-58
2022/04/27 08:38:33;;;;;;;13.57;10.47;;;;;;;;;;5032430;28;20903;-49
2022/04/27 08:40:59;;;;;;;15.20;10.90;;;;;;;;;;5032399;28;20513;-61
2022/04/27 08:43:26;;;;;;;15.20;10.27;;;;;;;;;;5032311;28;20409;-55
2022/04/27 08:45:52;;;;;;;24.33;9.70;;;;;;;;;;5032497;28;20412;-58
2022/04/27 08:48:18;;;;;;;16.13;9.83;;;;;;;;;;5032431;28;20420;-56
2022/04/27 08:50:45;;;;;;;12.03;10.20;;;;;;;;;;5032482;28;20405;-51
2022/04/27 08:53:14;;;;;;;13.63;9.40;;;;;;;;;;5032180;28;20417;-50
2022/04/27 08:55:41;;;;;;;15.33;9.37;;;;;;;;;;5032292;28;20400;-49
2022/04/27 08:58:11;;;;;;;11.43;9.00;;;;;;;;;;5030927;28;20762;-65
2022/04/27 09:00:37;;;;;;;12.43;8.93;;;;;;;;;;5032052;28;20435;-54
2022/04/27 09:03:22;;;;;;;11.87;9.60;;;;;;;;;;5032241;28;20417;-52
2022/04/27 09:05:50;;;;;;;12.20;9.40;;;;;;;;;;5032425;28;20404;-58
2022/04/27 09:08:16;;;;;;;11.60;8.53;;;;;;;;;;5032372;28;20420;-50
2022/04/27 09:10:42;;;;;;;9.77;8.60;;;;;;;;;;5032184;28;20412;-52
2022/04/27 09:13:08;;;;;;;11.33;8.83;;;;;;;;;;5030826;28;20417;-53
2022/04/27 09:15:34;;;;;;;10.40;8.30;;;;;;;;;;5031947;28;20405;-54
2022/04/27 09:20:52;;;;;;;8.70;7.80;;;;;;;;;;5032175;28;20478;-54
2022/04/27 09:23:22;;;;;;;10.63;8.90;;;;;;;;;;5032037;28;20427;-53
2022/04/27 09:25:50;;;;;;;8.57;7.83;;;;;;;;;;5032101;28;20408;-61
2022/04/27 09:28:16;;;;;;;10.30;8.07;;;;;;;;;;5031994;28;20458;-60
2022/04/27 09:30:44;;;;;;;11.63;7.90;;;;;;;;;;5031983;28;20401;-66
2022/04/27 09:33:10;;;;;;;9.40;7.30;;;;;;;;;;5032029;28;20832;-51
2022/04/27 09:35:37;;;;;;;10.37;9.00;;;;;;;;;;5032035;28;20404;-53
2022/04/27 09:38:13;;;;;;;8.90;8.10;;;;;;;;;;5031908;28;20769;-54
2022/04/27 09:40:43;;;;;;;8.83;7.87;;;;;;;;;;5031802;28;20766;-64
2022/04/27 09:43:09;;;;;;;8.30;7.40;;;;;;;;;;5031732;28;20963;-58
2022/04/27 09:45:35;;;;;;;9.77;8.17;;;;;;;;;;5032509;28;20821;-67
2022/04/27 09:48:03;;;;;;;13.40;10.03;;;;;;;;;;5035476;28;20444;-72
2022/04/27 09:50:48;;;;;;;10.77;8.07;;;;;;;;;;5035492;28;20419;-49
2022/04/27 09:53:18;;;;;;;9.37;7.50;;;;;;;;;;5034083;28;20486;-56
2022/04/27 09:55:46;;;;;;;8.07;7.27;;;;;;;;;;5035884;28;20408;-51
2022/04/27 09:58:14;;;;;;;9.67;7.63;;;;;;;;;;5035326;28;20408;-51
2022/04/27 10:00:42;;;;;;;9.00;8.10;;;;;;;;;;5033824;28;20420;-53
2022/04/27 10:03:08;;;;;;;10.47;7.57;;;;;;;;;;5035247;28;20412;-51
2022/04/27 10:05:34;;;;;;;7.93;7.20;;;;;;;;;;5035047;28;20408;-54
2022/04/27 10:08:01;;;;;;;10.00;7.47;;;;;;;;;;5034936;28;20971;-54
2022/04/27 10:10:28;;;;;;;7.67;6.70;;;;;;;;;;5034955;28;20908;-61
2022/04/27 10:12:54;;;;;;;9.07;7.13;;;;;;;;;;5035035;28;20416;-55
2022/04/27 10:15:20;;;;;;;9.97;7.10;;;;;;;;;;5033620;28;20416;-53
2022/04/27 10:17:46;;;;;;;8.27;7.20;;;;;;;;;;5035131;28;20408;-59
2022/04/27 10:20:32;;;;;;;8.47;7.40;;;;;;;;;;5033547;28;20421;-52
2022/04/27 10:23:19;;;;;;;8.03;6.80;;;;;;;;;;5034388;28;20542;-52
2022/04/27 10:26:04;;;;;;;7.60;6.90;;;;;;;;;;5034853;28;20419;-52
2022/04/27 10:28:33;;;;;;;7.70;7.10;;;;;;;;;;5034640;28;20408;-51
2022/04/27 10:31:01;;;;;;;7.30;6.70;;;;;;;;;;5034751;28;20405;-53
2022/04/27 10:33:53;;;;;;;7.87;7.13;;;;;;;;;;5034662;28;20404;-51
2022/04/27 10:36:23;;;;;;;8.00;7.30;;;;;;;;;;5032700;28;20416;-52
2022/04/27 10:39:08;;;;;;;7.10;6.50;;;;;;;;;;5034713;28;20909;-55
2022/04/27 10:41:34;;;;;;;11.93;6.87;;;;;;;;;;5034476;28;20463;-53
2022/04/27 10:44:00;;;;;;;10.83;7.43;;;;;;;;;;5034535;28;20424;-51
2022/04/27 10:46:39;;;;;;;8.40;6.93;;;;;;;;;;5033247;28;20742;-59
2022/04/27 10:49:23;;;;;;;7.40;6.77;;;;;;;;;;5034869;28;20746;-51
2022/04/27 10:51:59;;;;;;;9.40;7.57;;;;;;;;;;5034640;28;20420;-51
2022/04/27 10:54:29;;;;;;;8.17;7.00;;;;;;;;;;5034397;28;20404;-53
2022/04/27 10:57:15;;;;;;;7.77;6.90;;;;;;;;;;5033852;28;20404;-50
2022/04/27 10:59:44;;;;;;;7.33;6.63;;;;;;;;;;5033123;28;20494;-55
2022/04/27 11:02:29;;;;;;;7.43;6.80;;;;;;;;;;5032984;28;20476;-52
2022/04/27 11:04:55;;;;;;;10.03;7.37;;;;;;;;;;5033993;28;20412;-49
2022/04/27 11:07:26;;;;;;;10.40;7.10;;;;;;;;;;5034083;28;20404;-55
2022/04/27 11:09:54;;;;;;;7.50;6.43;;;;;;;;;;5033953;28;20408;-50
2022/04/27 11:12:21;;;;;;;7.30;6.60;;;;;;;;;;5033995;28;20412;-50
2022/04/27 11:14:47;;;;;;;6.83;6.30;;;;;;;;;;5034076;28;20416;-56
2022/04/27 11:17:25;;;;;;;7.67;6.97;;;;;;;;;;5033823;28;21131;-51
2022/04/27 11:19:52;;;;;;;17.07;6.80;;;;;;;;;;5032539;28;20404;-51
2022/04/27 11:22:18;;;;;;;7.47;6.80;;;;;;;;;;5033852;28;20487;-58
2022/04/27 11:24:48;;;;;;;9.40;6.57;;;;;;;;;;5032443;28;20409;-59
2022/04/27 11:27:21;;;;;;;9.00;7.00;;;;;;;;;;5033660;28;20425;-57
2022/04/27 11:29:47;;;;;;;7.40;6.60;;;;;;;;;;5033847;28;20408;-66
2022/04/27 11:32:15;;;;;;;7.50;6.80;;;;;;;;;;5033757;28;20771;-53
2022/04/27 11:34:41;;;;;;;10.40;6.87;;;;;;;;;;5033752;28;20412;-53
2022/04/27 11:37:17;;;;;;;7.27;6.67;;;;;;;;;;5033430;28;20447;-51
2022/04/27 11:39:44;;;;;;;7.00;6.40;;;;;;;;;;5033539;28;20459;-62
2022/04/27 11:42:12;;;;;;;7.77;7.17;;;;;;;;;;5033346;28;20551;-51
2022/04/27 11:44:38;;;;;;;9.10;7.00;;;;;;;;;;5033518;28;20504;-55
2022/04/27 11:47:04;;;;;;;9.70;7.40;;;;;;;;;;5031966;28;20817;-56
2022/04/27 11:49:30;;;;;;;8.70;6.73;;;;;;;;;;5032944;28;20423;-57
2022/04/27 11:51:56;;;;;;;12.33;6.90;;;;;;;;;;5032019;28;20924;-60
2022/04/27 11:54:26;;;;;;;9.87;7.30;;;;;;;;;;5031949;28;20925;-55
2022/04/27 11:57:03;;;;;;;8.10;7.30;;;;;;;;;;5033270;28;20416;-51
2022/04/27 11:59:45;;;;;;;7.17;6.57;;;;;;;;;;5033071;28;20408;-61
2022/04/27 12:02:11;;;;;;;8.03;6.53;;;;;;;;;;5033106;28;20510;-56
2022/04/27 12:04:38;;;;;;;11.03;8.27;;;;;;;;;;5033310;28;20405;-60
2022/04/27 12:07:13;;;;;;;9.00;7.80;;;;;;;;;;5033309;28;20765;-57
2022/04/27 12:09:39;;;;;;;8.23;7.43;;;;;;;;;;5032397;28;20404;-59
2022/04/27 12:12:11;;;;;;;7.27;6.67;;;;;;;;;;5032999;28;20474;-53
2022/04/27 12:14:37;;;;;;;10.80;6.50;;;;;;;;;;5033091;28;20400;-62
2022/04/27 12:17:04;;;;;;;7.50;6.40;;;;;;;;;;5033298;28;20415;-50
2022/04/27 12:19:32;;;;;;;7.50;6.70;;;;;;;;;;5032788;28;20492;-51
2022/04/27 12:22:11;;;;;;;6.07;5.67;;;;;;;;;;5031433;28;20523;-54
2022/04/27 12:24:44;;;;;;;7.53;6.80;;;;;;;;;;5031431;28;20416;-52
2022/04/27 12:27:18;;;;;;;7.93;6.47;;;;;;;;;;5032880;28;20769;-51
2022/04/27 12:29:44;;;;;;;7.70;6.93;;;;;;;;;;5032717;28;20526;-55
2022/04/27 12:32:13;;;;;;;8.50;6.60;;;;;;;;;;5032797;28;20421;-60
2022/04/27 12:37:32;;;;;;;6.43;5.90;;;;;;;;;;5033015;28;20518;-54
2022/04/27 12:40:14;;;;;;;6.40;5.80;;;;;;;;;;5032348;28;20413;-58
2022/04/27 12:43:20;;;;;;;6.57;5.90;;;;;;;;;;5032399;28;20545;-54
2022/04/27 12:46:05;;;;;;;6.40;5.80;;;;;;;;;;4991162;28;20862;-56
2022/04/27 12:48:33;;;;;;;12.33;5.90;;;;;;;;;;4991117;28;20406;-64
2022/04/27 12:50:59;;;;;;;7.37;6.27;;;;;;;;;;5017182;28;20489;-67
2022/04/27 12:53:26;;;;;;;6.63;5.53;;;;;;;;;;5032604;28;20409;-65
2022/04/27 12:56:07;;;;;;;11.30;6.97;;;;;;;;;;5030972;28;20408;-68
2022/04/27 12:58:33;;;;;;;10.33;6.80;;;;;;;;;;5032166;28;20401;-67
2022/04/27 13:01:00;;;;;;;9.40;7.60;;;;;;;;;;5032319;28;20401;-72
2022/04/27 13:03:26;;;;;;;8.27;7.40;;;;;;;;;;5032302;28;20765;-70
2022/04/27 13:05:52;;;;;;;6.83;6.13;;;;;;;;;;5032195;28;20404;-66
2022/04/27 13:08:19;;;;;;;8.07;7.33;;;;;;;;;;5032540;28;20412;-66
2022/04/27 13:13:30;;;;;;;7.83;7.03;;;;;;;;;;5031959;28;20432;-77
2022/04/27 13:15:56;;;;;;;6.67;6.07;;;;;;;;;;5032159;28;20813;-65
2022/04/27 13:18:23;;;;;;;6.80;6.20;;;;;;;;;;5032339;28;20416;-68
2022/04/27 13:20:52;;;;;;;8.40;7.57;;;;;;;;;;5034829;28;20403;-66
2022/04/27 13:23:19;;;;;;;7.90;7.20;;;;;;;;;;5035830;28;20412;-62
2022/04/27 13:25:46;;;;;;;5.87;5.47;;;;;;;;;;5036125;28;20447;-68
2022/04/27 13:28:12;;;;;;;10.07;6.57;;;;;;;;;;5036073;28;20978;-69
2022/04/27 13:30:40;;;;;;;7.43;6.70;;;;;;;;;;5036107;28;20397;-67
2022/04/27 13:33:09;;;;;;;6.70;6.03;;;;;;;;;;5035840;28;20454;-73
2022/04/27 13:35:35;;;;;;;8.13;6.57;;;;;;;;;;5035834;28;20416;-60
2022/04/27 13:38:02;;;;;;;6.80;6.20;;;;;;;;;;5034660;28;20408;-65
2022/04/27 13:40:28;;;;;;;10.50;7.90;;;;;;;;;;5034626;28;20417;-67
2022/04/27 13:42:54;;;;;;;7.53;6.47;;;;;;;;;;5035633;28;20472;-57
2022/04/27 13:45:20;;;;;;;9.23;7.20;;;;;;;;;;5035603;28;20404;-56
2022/04/27 13:47:46;;;;;;;8.13;7.00;;;;;;;;;;5035945;28;20467;-56
2022/04/27 13:50:12;;;;;;;9.93;7.00;;;;;;;;;;5034420;28;20913;-72
2022/04/27 13:52:39;;;;;;;7.67;6.87;;;;;;;;;;5035557;28;20426;-63
2022/04/27 13:55:06;;;;;;;7.87;7.17;;;;;;;;;;5035511;28;20459;-68
2022/04/27 13:57:32;;;;;;;7.93;7.13;;;;;;;;;;5035843;28;20916;-65
2022/04/27 13:59:58;;;;;;;7.70;6.90;;;;;;;;;;5036888;28;20409;-63
2022/04/27 14:02:24;;;;;;;8.90;7.47;;;;;;;;;;5037081;28;20475;-75
2022/04/27 14:04:50;;;;;;;8.10;7.40;;;;;;;;;;5035515;28;20420;-58
2022/04/27 14:07:16;;;;;;;8.77;7.10;;;;;;;;;;5036791;28;20431;-77
2022/04/27 14:09:42;;;;;;;8.03;7.33;;;;;;;;;;5037405;28;20409;-73
2022/04/27 14:14:53;;;;;;;10.97;6.83;;;;;;;;;;5036300;28;20408;-66
2022/04/27 14:20:04;;;;;;;7.37;6.67;;;;;;;;;;5035446;28;20408;-76
2022/04/27 14:22:30;;;;;;;9.70;6.60;;;;;;;;;;5035026;28;20591;-68
2022/04/27 14:24:56;;;;;;;6.50;6.00;;;;;;;;;;5035127;28;20449;-62
2022/04/27 14:27:22;;;;;;;7.00;5.43;;;;;;;;;;5033453;28;20645;-68
2022/04/27 14:29:48;;;;;;;6.63;6.10;;;;;;;;;;5035063;28;20499;-58
2022/04/27 14:32:14;;;;;;;5.70;5.30;;;;;;;;;;5033974;28;20423;-58
2022/04/27 14:34:40;;;;;;;6.37;5.77;;;;;;;;;;5034628;28;20413;-63
2022/04/27 14:37:06;;;;;;;9.50;6.83;;;;;;;;;;5034077;28;20959;-79
2022/04/27 14:39:33;;;;;;;8.23;5.97;;;;;;;;;;5034916;28;20497;-73
2022/04/27 14:41:59;;;;;;;7.30;5.60;;;;;;;;;;5034558;28;20625;-55
2022/04/27 14:44:25;;;;;;;6.70;6.10;;;;;;;;;;5033315;28;20508;-64
2022/04/27 14:46:51;;;;;;;6.83;6.20;;;;;;;;;;5034797;28;20448;-63
2022/04/27 14:49:21;;;;;;;9.83;6.60;;;;;;;;;;5034856;28;20411;-54
2022/04/27 14:51:47;;;;;;;8.00;6.20;;;;;;;;;;5033185;28;20913;-58
2022/04/27 14:54:13;;;;;;;6.23;5.73;;;;;;;;;;5034288;28;20443;-57
2022/04/27 14:56:40;;;;;;;7.67;5.33;;;;;;;;;;5034106;28;20451;-55